Xanthi, Greece
Current Conditions -  °F | °C
As of 7:20 PM on Thursday 30 Oct 2014 (Local Time) from LGKV Reporting Station
Broken Clouds Broken Clouds  
Wind Chill: 55°   Ceiling: 7000
Heat Index: 55°   Visibility: 6mi
Dew Point: 52°   Wind: 0mph
Humidity: 88%   Direction: NA
Pressure: 30.09"   Gusts: NA
Location:  41.14°N, 24.88°E
Report Text: LGKV 301720Z 00000KT 9999 FEW018 SCT040 BKN070 13/11 Q1019
Loading
Personal Weather Stations






























Interactive Weather Map
Tropical Storm Tracking
New forecast layout! Learn more

10-Day Weather Forecast

Advertisements
Track Severe Weather on mobile